Time;durP1;ratioP1;P1;durP2;ratioP2;P2;SDS_P1;SDS_P2;PMS_P1;PMS_P2;Temp;Humidity;BMP_temperature;BMP_pressure;BME280_temperature;BME280_humidity;BME280_pressure;Samples;Min_cycle;Max_cycle;Signal;HPM_P1;HPM_P2
2021/07/08 00:02:22;;;;;;;5.03;4.80;;;;;;;19.62;92.38;102029.56;6387263;28;20181;-76
2021/07/08 00:05:27;;;;;;;5.32;4.80;;;;;;;19.57;92.51;102032.22;6388168;28;20208;-76
2021/07/08 00:08:32;;;;;;;5.93;5.10;;;;;;;19.43;93.30;102047.47;6373488;27;20262;-76
2021/07/08 00:11:37;;;;;;;5.93;5.43;;;;;;;19.49;93.18;102040.94;6392038;27;20497;-76
2021/07/08 00:14:41;;;;;;;6.03;5.50;;;;;;;19.48;93.04;102046.72;6392969;27;20256;-76
2021/07/08 00:17:47;;;;;;;5.88;5.43;;;;;;;19.41;93.74;102049.66;6391945;27;20487;-76
2021/07/08 00:20:52;;;;;;;7.43;5.00;;;;;;;19.41;93.12;102055.19;6391680;27;20492;-75
2021/07/08 00:23:58;;;;;;;5.05;4.85;;;;;;;19.37;93.86;102053.97;6392732;27;20182;-75
2021/07/08 00:27:02;;;;;;;5.93;5.35;;;;;;;19.34;93.83;102059.97;6391564;27;20523;-76
2021/07/08 00:30:08;;;;;;;6.75;5.40;;;;;;;19.34;93.92;102059.97;6392267;27;20233;-75
2021/07/08 00:33:15;;;;;;;5.75;5.45;;;;;;;19.30;93.45;102056.88;6392500;27;20188;-76
2021/07/08 00:36:19;;;;;;;5.68;5.22;;;;;;;19.38;92.90;102066.75;6373718;27;20277;-76
2021/07/08 00:39:25;;;;;;;5.15;4.95;;;;;;;19.29;93.48;102073.69;6391237;27;20181;-76
2021/07/08 00:42:29;;;;;;;4.80;4.50;;;;;;;19.26;93.30;102065.88;6391217;27;20431;-75
2021/07/08 00:45:34;;;;;;;8.75;5.10;;;;;;;19.24;93.48;102065.28;6392485;27;20213;-76
2021/07/08 00:48:38;;;;;;;5.13;4.80;;;;;;;19.18;94.18;102060.75;6391176;27;20371;-75
2021/07/08 00:51:43;;;;;;;9.52;5.05;;;;;;;19.20;93.55;102064.97;6392438;27;20207;-75
2021/07/08 00:54:49;;;;;;;5.43;4.72;;;;;;;19.21;93.13;102071.31;6392039;27;20245;-75
2021/07/08 00:57:53;;;;;;;6.85;5.53;;;;;;;19.13;93.43;102068.94;6390921;27;20551;-76
2021/07/08 01:00:58;;;;;;;8.85;5.78;;;;;;;19.16;93.17;102073.97;6391744;27;20226;-75
2021/07/08 01:04:03;;;;;;;5.63;5.22;;;;;;;19.05;93.33;102084.00;6392073;27;20182;-76
2021/07/08 01:07:07;;;;;;;5.38;4.88;;;;;;;19.10;93.22;102080.50;6390519;27;20381;-75
2021/07/08 01:10:14;;;;;;;5.38;5.00;;;;;;;19.14;92.58;102087.22;6390556;27;20465;-76
2021/07/08 01:13:21;;;;;;;5.70;5.40;;;;;;;19.11;92.71;102087.69;6373140;27;20201;-76
2021/07/08 01:16:27;;;;;;;5.35;5.00;;;;;;;18.96;93.50;102084.59;6390351;27;20209;-77
2021/07/08 01:19:34;;;;;;;6.35;5.00;;;;;;;18.98;93.89;102088.78;6389690;27;20181;-76
2021/07/08 01:22:40;;;;;;;11.10;5.28;;;;;;;18.82;94.50;102095.09;6372131;27;20219;-76
2021/07/08 01:25:44;;;;;;;5.95;5.45;;;;;;;18.90;94.39;102088.34;6391538;27;20182;-76
2021/07/08 01:28:50;;;;;;;5.53;5.20;;;;;;;18.80;95.04;102090.88;6376064;27;20230;-75
2021/07/08 01:31:54;;;;;;;5.25;4.95;;;;;;;18.82;94.61;102089.56;6389334;27;20461;-75
2021/07/08 01:34:59;;;;;;;6.57;5.53;;;;;;;18.81;94.75;102092.53;6391283;27;20181;-75
2021/07/08 01:38:05;;;;;;;5.22;4.75;;;;;;;18.84;94.16;102092.06;6390953;27;20186;-75
2021/07/08 01:41:09;;;;;;;6.47;5.93;;;;;;;18.89;94.09;102089.41;6389792;27;20225;-76
2021/07/08 01:44:13;;;;;;;5.20;4.88;;;;;;;18.84;93.98;102092.06;6390790;27;20181;-76
2021/07/08 01:47:17;;;;;;;5.60;4.97;;;;;;;18.93;93.35;102090.59;6390763;27;20209;-75
2021/07/08 01:50:22;;;;;;;8.80;5.28;;;;;;;18.91;93.52;102092.78;6390918;27;20212;-76
2021/07/08 01:53:28;;;;;;;6.07;5.45;;;;;;;18.82;94.04;102095.09;6390587;27;20181;-76
2021/07/08 01:56:33;;;;;;;6.15;5.13;;;;;;;18.89;93.76;102078.34;6390446;27;20185;-76
2021/07/08 01:59:37;;;;;;;5.70;5.18;;;;;;;18.83;93.50;102087.59;6405519;27;20205;-75
2021/07/08 02:02:42;;;;;;;6.22;5.30;;;;;;;18.80;93.89;102090.88;6390241;27;20192;-76
2021/07/08 02:05:46;;;;;;;7.53;5.10;;;;;;;18.84;93.28;102092.06;6389181;27;20488;-75
2021/07/08 02:08:52;;;;;;;5.30;4.70;;;;;;;18.83;93.11;102095.91;6389072;27;20236;-76
2021/07/08 02:11:58;;;;;;;5.57;5.18;;;;;;;18.76;92.69;102096.03;6389145;27;20516;-75
2021/07/08 02:15:02;;;;;;;5.43;5.03;;;;;;;18.79;92.47;102090.03;6388949;27;20441;-76
2021/07/08 02:18:06;;;;;;;4.85;4.63;;;;;;;18.71;93.15;102096.78;6390416;27;20252;-76
2021/07/08 02:21:12;;;;;;;7.25;4.72;;;;;;;18.77;92.59;102095.78;6388936;27;20492;-76
2021/07/08 02:24:17;;;;;;;5.85;5.25;;;;;;;18.73;92.39;102102.91;6389846;27;20226;-76
2021/07/08 02:27:21;;;;;;;5.03;4.35;;;;;;;18.69;92.85;102107.22;6390174;27;20280;-76
2021/07/08 02:30:28;;;;;;;5.40;5.00;;;;;;;18.65;93.40;102106.00;6388424;27;20225;-75
2021/07/08 02:33:33;;;;;;;5.43;5.03;;;;;;;18.65;93.43;102106.00;6390025;27;20188;-75
2021/07/08 02:36:37;;;;;;;7.53;5.40;;;;;;;18.71;93.25;102110.59;6389943;27;20267;-76
2021/07/08 02:39:43;;;;;;;6.78;4.78;;;;;;;18.73;92.97;102116.72;6388770;27;20192;-75
2021/07/08 02:42:50;;;;;;;8.48;5.10;;;;;;;18.67;93.01;102114.91;6389753;27;20185;-76
2021/07/08 02:45:55;;;;;;;5.55;5.03;;;;;;;18.68;92.96;102122.13;6389729;27;20227;-76
2021/07/08 02:48:59;;;;;;;6.65;4.78;;;;;;;18.66;93.51;102117.91;6388110;27;20520;-76
2021/07/08 02:52:04;;;;;;;5.38;4.70;;;;;;;18.74;92.92;102120.34;6388214;27;20348;-76
2021/07/08 02:55:12;;;;;;;5.22;4.80;;;;;;;18.79;92.90;102116.84;6388460;27;20181;-76
2021/07/08 02:58:17;;;;;;;5.60;5.03;;;;;;;18.77;93.24;102113.47;6389376;27;20185;-75
2021/07/08 03:01:21;;;;;;;5.45;5.15;;;;;;;18.77;93.75;102124.53;6389529;27;20353;-76
2021/07/08 03:04:25;;;;;;;5.13;4.75;;;;;;;18.80;93.48;102118.53;6389215;27;20187;-76
2021/07/08 03:07:29;;;;;;;5.78;5.25;;;;;;;18.80;93.84;102124.88;6389191;27;20213;-76
2021/07/08 03:10:35;;;;;;;5.25;4.95;;;;;;;18.70;94.49;102128.25;6387638;27;20204;-76
2021/07/08 03:13:42;;;;;;;5.32;4.97;;;;;;;18.71;94.57;102127.19;6388787;27;20213;-76
2021/07/08 03:16:46;;;;;;;5.07;4.88;;;;;;;18.77;94.36;102131.72;6387621;27;20182;-75
2021/07/08 03:19:50;;;;;;;8.50;5.35;;;;;;;18.75;94.58;102128.38;6388890;27;20244;-75
2021/07/08 03:22:55;;;;;;;7.28;5.05;;;;;;;18.80;94.75;102135.13;6387527;27;20469;-76
2021/07/08 03:26:02;;;;;;;5.25;4.95;;;;;;;18.84;94.57;102130.78;6404694;27;20197;-75
2021/07/08 03:29:06;;;;;;;8.13;5.35;;;;;;;18.82;93.61;102139.34;6370819;27;20258;-76
2021/07/08 03:32:12;;;;;;;5.10;4.75;;;;;;;18.92;93.77;102138.72;6388528;27;20182;-76
2021/07/08 03:35:17;;;;;;;5.78;5.38;;;;;;;18.91;93.32;102148.09;6388334;28;20185;-76
2021/07/08 03:38:21;;;;;;;6.72;5.00;;;;;;;18.96;92.98;102149.06;6388715;27;20192;-76
2021/07/08 03:41:27;;;;;;;6.35;5.03;;;;;;;18.89;93.89;102151.09;6387015;27;20432;-76
2021/07/08 03:44:31;;;;;;;5.50;5.10;;;;;;;18.93;93.67;102152.28;6388405;28;20181;-75
2021/07/08 03:47:36;;;;;;;5.80;5.30;;;;;;;18.92;93.64;102144.25;6388234;28;20245;-76
2021/07/08 03:50:40;;;;;;;5.68;5.00;;;;;;;18.91;93.44;102151.69;6388219;28;20246;-76
2021/07/08 03:53:45;;;;;;;7.97;4.93;;;;;;;19.01;92.97;102153.84;6388546;28;20182;-76
2021/07/08 03:56:50;;;;;;;5.05;4.57;;;;;;;18.99;93.45;102162.41;6388242;28;20189;-76
2021/07/08 03:59:54;;;;;;;7.18;4.90;;;;;;;19.03;93.03;102160.00;6387063;28;20319;-76
2021/07/08 04:03:05;;;;;;;5.50;4.65;;;;;;;19.11;92.80;102170.69;6388426;28;20187;-76
2021/07/08 04:06:10;;;;;;;6.65;4.95;;;;;;;19.16;92.59;102168.03;6388323;28;20220;-76
2021/07/08 04:09:14;;;;;;;4.60;4.20;;;;;;;19.19;92.18;102179.47;6386760;28;20526;-76
2021/07/08 04:12:20;;;;;;;4.22;3.92;;;;;;;19.14;92.87;102175.75;6388496;28;20215;-76
2021/07/08 04:15:25;;;;;;;4.45;4.00;;;;;;;19.19;92.51;102178.63;6404133;27;20197;-76
2021/07/08 04:18:29;;;;;;;4.50;4.20;;;;;;;19.23;92.72;102179.84;6386917;28;20469;-76
2021/07/08 04:21:33;;;;;;;7.40;4.35;;;;;;;19.30;92.54;102180.53;6387704;28;20227;-76
2021/07/08 04:24:37;;;;;;;3.95;3.85;;;;;;;19.28;91.84;102177.19;6388145;28;20283;-76
2021/07/08 04:27:43;;;;;;;5.18;4.03;;;;;;;19.32;91.17;102178.38;6387788;28;20227;-76
2021/07/08 04:30:48;;;;;;;3.63;3.53;;;;;;;19.40;90.77;102175.25;6387059;28;20233;-76
2021/07/08 04:33:53;;;;;;;4.00;3.60;;;;;;;19.36;91.58;102179.59;6387737;28;20213;-76
2021/07/08 04:36:57;;;;;;;3.92;3.67;;;;;;;19.33;92.00;102175.38;6387738;28;20213;-76
2021/07/08 04:40:01;;;;;;;3.40;3.20;;;;;;;19.45;91.27;102182.84;6386489;28;20473;-76
2021/07/08 04:43:08;;;;;;;6.35;3.53;;;;;;;19.48;90.75;102177.66;6387967;28;20190;-76
2021/07/08 04:46:13;;;;;;;3.25;2.95;;;;;;;19.45;90.07;102183.69;6386915;28;20186;-77
2021/07/08 04:49:17;;;;;;;6.03;3.28;;;;;;;19.48;89.91;102187.88;6387534;28;20209;-76
2021/07/08 04:52:22;;;;;;;3.40;3.08;;;;;;;19.55;90.04;102194.97;6387657;27;20245;-76
2021/07/08 04:55:26;;;;;;;3.65;3.35;;;;;;;19.57;89.75;102187.25;6391185;27;20213;-76
2021/07/08 04:58:32;;;;;;;3.55;3.13;;;;;;;19.56;89.68;102191.13;6390898;27;20526;-76
2021/07/08 05:01:36;;;;;;;3.50;3.35;;;;;;;19.63;89.70;102191.84;6373516;27;20274;-76
2021/07/08 05:04:40;;;;;;;4.63;3.10;;;;;;;19.65;88.94;102195.19;6390747;27;20205;-76
2021/07/08 05:07:45;;;;;;;3.22;2.92;;;;;;;19.70;88.17;102192.53;6390613;27;20194;-75
2021/07/08 05:10:48;;;;;;;4.82;3.20;;;;;;;19.66;89.21;102202.41;6391985;27;20209;-75
2021/07/08 05:13:54;;;;;;;3.40;3.10;;;;;;;19.76;88.43;102205.41;6391865;27;20213;-75
2021/07/08 05:16:58;;;;;;;3.70;3.42;;;;;;;19.67;88.21;102195.78;6390323;27;20204;-74
2021/07/08 05:20:03;;;;;;;9.00;3.20;;;;;;;19.75;87.83;102189.88;6390271;27;20381;-74
2021/07/08 05:23:16;;;;;;;3.58;2.92;;;;;;;19.82;87.07;102201.63;6390411;27;20349;-76
2021/07/08 05:26:21;;;;;;;3.72;2.80;;;;;;;19.88;85.56;102195.13;6390302;27;20388;-76
2021/07/08 05:29:28;;;;;;;4.47;3.22;;;;;;;20.05;86.38;102209.06;6390914;27;20240;-77
2021/07/08 05:32:32;;;;;;;2.88;2.65;;;;;;;20.26;85.16;102208.34;6391664;27;20188;-76
2021/07/08 05:35:36;;;;;;;4.05;3.13;;;;;;;20.57;83.62;102209.75;6391423;27;20213;-75
2021/07/08 05:38:40;;;;;;;5.15;3.00;;;;;;;20.76;78.91;102214.00;6389843;27;20476;-75
2021/07/08 05:41:44;;;;;;;4.15;2.78;;;;;;;20.93;77.71;102209.28;6390287;27;20189;-75
2021/07/08 05:44:50;;;;;;;2.85;2.70;;;;;;;21.02;76.01;102207.78;6391290;27;20213;-75
2021/07/08 05:47:54;;;;;;;6.35;3.42;;;;;;;21.18;74.97;102223.56;6391413;27;20258;-75
2021/07/08 05:50:59;;;;;;;21.27;3.30;;;;;;;21.20;74.91;102232.50;6390429;27;20237;-75
2021/07/08 05:54:03;;;;;;;2.88;2.65;;;;;;;21.34;74.46;102237.72;6389527;27;20377;-75
2021/07/08 05:57:08;;;;;;;4.85;2.78;;;;;;;21.50;73.80;102242.38;6389294;27;20204;-75
2021/07/08 06:00:17;;;;;;;3.83;3.40;;;;;;;21.56;75.09;102246.91;6390321;27;20186;-76
2021/07/08 06:03:21;;;;;;;7.65;2.65;;;;;;;21.66;74.22;102253.47;6390257;27;20182;-75
2021/07/08 06:06:26;;;;;;;8.98;2.85;;;;;;;21.74;74.68;102263.28;6389994;27;20189;-75
2021/07/08 06:09:30;;;;;;;2.75;2.65;;;;;;;21.69;73.09;102263.22;6389924;27;20246;-75
2021/07/08 06:12:35;;;;;;;6.03;2.97;;;;;;;21.73;72.56;102247.69;6390110;27;20234;-75
2021/07/08 06:15:41;;;;;;;4.60;2.83;;;;;;;21.85;73.82;102259.56;6390126;27;20248;-75
2021/07/08 06:18:45;;;;;;;3.78;2.70;;;;;;;21.92;72.04;102251.88;6390314;27;20209;-75
2021/07/08 06:21:49;;;;;;;3.67;2.63;;;;;;;21.96;72.15;102253.03;6388684;27;20534;-75
2021/07/08 06:24:53;;;;;;;6.63;2.50;;;;;;;21.98;71.02;102259.16;6388572;27;20212;-75
2021/07/08 06:27:58;;;;;;;5.18;2.60;;;;;;;22.02;71.60;102260.34;6389886;27;20249;-75
2021/07/08 06:31:03;;;;;;;5.38;2.92;;;;;;;22.12;70.43;102263.25;6355038;28;20248;-75
2021/07/08 06:34:09;;;;;;;5.43;2.97;;;;;;;22.13;71.19;102262.16;6364168;28;20182;-75
2021/07/08 06:37:16;;;;;;;3.08;2.85;;;;;;;21.94;69.35;102273.84;6364138;28;20182;-76
2021/07/08 06:40:20;;;;;;;3.88;2.42;;;;;;;21.97;71.34;102276.97;6344825;28;20469;-75
2021/07/08 06:43:24;;;;;;;5.25;2.50;;;;;;;22.09;69.86;102274.88;6363866;28;20182;-75
2021/07/08 06:46:31;;;;;;;2.88;2.60;;;;;;;22.17;69.30;102273.59;6363757;28;20183;-75
2021/07/08 06:49:36;;;;;;;5.43;2.53;;;;;;;22.24;68.46;102277.00;6362570;28;20289;-75
2021/07/08 06:52:41;;;;;;;2.83;2.30;;;;;;;22.23;67.44;102281.75;6363594;28;20186;-75
2021/07/08 06:55:45;;;;;;;8.45;3.85;;;;;;;22.12;67.27;102288.28;6363092;28;20325;-76
2021/07/08 06:58:50;;;;;;;7.35;2.63;;;;;;;22.23;65.99;102287.31;6363445;28;20182;-75
2021/07/08 07:01:56;;;;;;;4.70;2.30;;;;;;;22.33;67.31;102293.00;6363020;28;20186;-75
2021/07/08 07:05:00;;;;;;;3.40;2.30;;;;;;;22.47;65.83;102289.81;6363281;28;20189;-75
2021/07/08 07:08:05;;;;;;;11.35;2.40;;;;;;;22.51;65.92;102299.28;6363212;28;20189;-76
2021/07/08 07:11:11;;;;;;;5.88;2.10;;;;;;;22.38;63.69;102306.94;6363161;28;20241;-75
2021/07/08 07:14:15;;;;;;;5.00;2.33;;;;;;;22.29;64.02;102302.94;6362977;28;20182;-75
2021/07/08 07:17:21;;;;;;;6.20;2.42;;;;;;;22.39;65.10;102297.47;6361462;28;20366;-75
2021/07/08 07:20:25;;;;;;;4.32;2.15;;;;;;;22.39;64.04;102303.06;6361800;28;20387;-75
2021/07/08 07:23:29;;;;;;;2.40;2.20;;;;;;;22.48;64.32;102294.25;6363596;28;20182;-75
2021/07/08 07:26:34;;;;;;;6.35;2.33;;;;;;;22.48;64.03;102289.53;6362215;28;20204;-75
2021/07/08 07:29:38;;;;;;;6.55;2.05;;;;;;;22.59;64.78;102298.81;6361882;28;20297;-75
2021/07/08 07:32:44;;;;;;;9.30;2.80;;;;;;;22.72;66.00;102295.66;6363045;28;20245;-75
2021/07/08 07:35:48;;;;;;;5.65;1.95;;;;;;;22.84;62.54;102299.13;6361459;28;20249;-75
2021/07/08 07:38:52;;;;;;;4.75;2.10;;;;;;;22.81;61.17;102297.69;6361697;28;20474;-75
2021/07/08 07:41:56;;;;;;;6.18;1.88;;;;;;;22.96;61.89;102305.34;6361692;28;20414;-75
2021/07/08 07:45:01;;;;;;;3.53;2.08;;;;;;;23.01;61.95;102305.38;6362836;28;20253;-75
2021/07/08 07:48:07;;;;;;;2.13;1.90;;;;;;;23.06;60.74;102311.00;6361560;28;20257;-75
2021/07/08 07:51:12;;;;;;;2.50;1.80;;;;;;;23.11;60.46;102316.66;6361672;28;20218;-75
2021/07/08 07:54:16;;;;;;;1.90;1.80;;;;;;;23.12;61.18;102309.94;6361460;28;20366;-75
2021/07/08 07:57:20;;;;;;;1.85;1.65;;;;;;;23.21;60.39;102313.94;6361384;28;20213;-75
2021/07/08 08:00:25;;;;;;;7.88;2.33;;;;;;;23.31;58.80;102322.38;6361296;28;20186;-75
2021/07/08 08:03:31;;;;;;;8.50;2.30;;;;;;;23.36;57.99;102330.81;6362409;28;20249;-75
2021/07/08 08:09:57;;;;;;;6.05;2.08;;;;;;;23.49;58.29;102329.50;6361215;28;20466;-76
2021/07/08 08:13:01;;;;;;;1.75;1.65;;;;;;;23.54;57.59;102319.25;6361190;28;20522;-75
2021/07/08 08:16:07;;;;;;;4.93;2.13;;;;;;;23.56;58.10;102319.81;6362133;28;20214;-76
2021/07/08 08:19:12;;;;;;;3.92;1.83;;;;;;;23.35;55.95;102317.94;6362103;28;20213;-76
2021/07/08 08:22:20;;;;;;;2.10;1.70;;;;;;;23.41;56.08;102316.91;6362319;28;20269;-76
2021/07/08 08:25:24;;;;;;;1.88;1.70;;;;;;;23.43;55.85;102314.69;6362105;28;20236;-76
2021/07/08 08:28:28;;;;;;;4.05;1.63;;;;;;;23.52;56.18;102313.06;6361956;28;20205;-76
2021/07/08 08:31:33;;;;;;;1.73;1.55;;;;;;;23.52;56.09;102312.25;6365894;28;20363;-76
2021/07/08 08:34:38;;;;;;;2.78;2.10;;;;;;;23.53;56.66;102320.34;6366781;28;20245;-76
2021/07/08 08:37:43;;;;;;;2.53;1.80;;;;;;;23.47;55.98;102321.41;6366603;28;20228;-76
2021/07/08 08:40:49;;;;;;;2.00;2.00;;;;;;;23.57;56.25;102321.47;6365481;28;20500;-76
2021/07/08 08:43:53;;;;;;;2.00;1.77;;;;;;;23.34;54.02;102332.97;6365441;28;20407;-76
2021/07/08 08:46:57;;;;;;;4.80;2.00;;;;;;;23.49;56.21;102319.22;6365422;28;20249;-74
2021/07/08 08:50:03;;;;;;;2.58;2.22;;;;;;;23.54;56.62;102324.81;6366152;28;20249;-77
2021/07/08 08:53:10;;;;;;;4.68;1.90;;;;;;;23.49;56.24;102324.78;6366342;28;20210;-77
2021/07/08 08:56:14;;;;;;;2.20;2.00;;;;;;;23.53;56.81;102320.34;6366415;28;20182;-76
2021/07/08 08:59:18;;;;;;;4.50;1.98;;;;;;;23.58;56.41;102328.72;6366308;28;20186;-76
2021/07/08 09:02:22;;;;;;;3.05;2.00;;;;;;;23.50;55.53;102336.75;6366268;28;20218;-77
2021/07/08 09:05:28;;;;;;;2.00;1.90;;;;;;;23.51;56.18;102344.84;6365083;28;20182;-75
2021/07/08 09:08:33;;;;;;;4.57;1.83;;;;;;;23.45;55.80;102345.91;6365654;28;20182;-75
2021/07/08 09:11:38;;;;;;;2.35;2.15;;;;;;;23.41;56.53;102350.34;6365753;28;20210;-75
2021/07/08 09:14:42;;;;;;;4.22;1.75;;;;;;;23.40;56.63;102348.66;6364549;28;20480;-75
2021/07/08 09:17:47;;;;;;;3.42;1.83;;;;;;;23.37;55.94;102351.97;6364530;28;20372;-75
2021/07/08 09:20:54;;;;;;;4.00;2.05;;;;;;;23.37;57.70;102340.81;6365399;28;20251;-75
2021/07/08 09:24:19;;;;;;;3.20;1.85;;;;;;;23.44;57.26;102344.25;6364825;28;20209;-75
2021/07/08 09:27:26;;;;;;;1.85;1.60;;;;;;;23.27;54.21;102354.63;6365739;28;20182;-75
2021/07/08 09:30:31;;;;;;;6.18;2.00;;;;;;;23.35;55.26;102348.56;6364828;28;20226;-75
2021/07/08 09:33:37;;;;;;;4.10;1.73;;;;;;;23.40;54.76;102353.38;6365013;28;20206;-77
2021/07/08 09:36:43;;;;;;;1.65;1.55;;;;;;;23.33;55.35;102352.72;6364113;28;20511;-74
2021/07/08 09:39:49;;;;;;;1.70;1.70;;;;;;;23.28;55.55;102356.31;6364438;28;20182;-75
2021/07/08 09:42:53;;;;;;;4.40;1.70;;;;;;;23.33;54.43;102336.88;6364929;28;20186;-76
2021/07/08 09:45:57;;;;;;;1.63;1.52;;;;;;;23.29;53.70;102346.84;6365333;28;20193;-75
2021/07/08 09:49:07;;;;;;;1.52;1.50;;;;;;;23.34;52.64;102338.53;6363782;28;20357;-77
2021/07/08 09:52:13;;;;;;;1.73;1.65;;;;;;;23.47;53.15;102354.81;6365177;28;20242;-76
2021/07/08 09:55:19;;;;;;;1.65;1.50;;;;;;;23.47;54.64;102354.81;6364948;28;20182;-76
2021/07/08 09:58:25;;;;;;;1.85;1.75;;;;;;;23.39;52.22;102363.69;6363803;28;20481;-76
2021/07/08 10:01:30;;;;;;;3.03;1.70;;;;;;;23.32;52.19;102351.88;6364904;28;20186;-75
2021/07/08 10:04:34;;;;;;;1.77;1.67;;;;;;;23.43;52.88;102362.03;6345919;28;20198;-75
2021/07/08 10:07:42;;;;;;;2.40;1.70;;;;;;;23.45;53.19;102359.84;6363831;28;20376;-75
2021/07/08 10:10:48;;;;;;;3.20;1.92;;;;;;;23.50;54.36;102359.88;6364757;28;20189;-75
2021/07/08 10:13:53;;;;;;;1.88;1.73;;;;;;;23.44;52.55;102374.88;6364344;28;20376;-76
2021/07/08 10:16:58;;;;;;;1.80;1.80;;;;;;;23.57;52.80;102371.63;6363362;28;20264;-75
2021/07/08 10:20:06;;;;;;;1.95;1.85;;;;;;;23.53;53.88;102387.19;6362918;28;20182;-75
2021/07/08 10:23:12;;;;;;;1.60;1.50;;;;;;;23.55;53.50;102384.97;6363023;28;20382;-75
2021/07/08 10:26:17;;;;;;;1.73;1.65;;;;;;;23.59;52.80;102391.72;6364557;28;20182;-75
2021/07/08 10:29:21;;;;;;;2.92;1.70;;;;;;;23.58;52.58;102401.16;6361802;28;20261;-75
2021/07/08 10:32:26;;;;;;;2.08;1.83;;;;;;;23.59;54.21;102391.72;6338591;28;20210;-75
2021/07/08 10:35:44;;;;;;;4.78;2.28;;;;;;;23.54;52.72;102388.91;6339059;28;20190;-75
2021/07/08 10:39:02;;;;;;;4.25;1.83;;;;;;;23.52;51.93;102379.94;6338048;28;20218;-75
2021/07/08 10:42:06;;;;;;;2.00;1.73;;;;;;;23.59;52.05;102393.66;6338797;28;20187;-76
2021/07/08 10:45:46;;;;;;;5.60;2.10;;;;;;;23.66;52.48;102364.47;6338414;28;20183;-76
2021/07/08 10:48:51;;;;;;;2.67;1.90;;;;;;;23.72;52.60;102370.06;6337413;28;20423;-76
2021/07/08 10:51:55;;;;;;;2.65;1.90;;;;;;;23.78;50.80;102378.19;6337729;28;20210;-76
2021/07/08 10:55:00;;;;;;;3.38;2.10;;;;;;;23.85;52.13;102366.81;6337406;28;20262;-76
2021/07/08 10:58:05;;;;;;;4.32;1.88;;;;;;;23.91;52.50;102365.75;6339112;28;20189;-76
2021/07/08 11:01:11;;;;;;;3.65;1.80;;;;;;;23.96;54.50;102351.84;6338078;28;20247;-76
2021/07/08 11:04:16;;;;;;;2.28;2.17;;;;;;;24.05;55.90;102361.34;6339297;28;20222;-76
2021/07/08 11:07:22;;;;;;;2.20;1.98;;;;;;;24.06;53.44;102349.13;6338175;28;20424;-76
2021/07/08 11:10:34;;;;;;;3.45;1.85;;;;;;;24.11;53.45;102332.44;6337949;28;20347;-76
2021/07/08 11:13:39;;;;;;;1.80;1.70;;;;;;;24.10;50.91;102336.31;6338421;28;20211;-75
2021/07/08 11:16:45;;;;;;;2.65;1.90;;;;;;;24.18;50.79;102327.44;6338163;28;20186;-75
2021/07/08 11:19:55;;;;;;;2.83;1.98;;;;;;;24.22;50.95;102325.78;6338254;28;20190;-75
2021/07/08 11:23:37;;;;;;;1.90;1.65;;;;;;;24.29;51.93;102335.56;6337721;28;20187;-75
2021/07/08 11:26:56;;;;;;;3.53;2.05;;;;;;;24.41;53.18;102338.13;6337692;28;20205;-75
2021/07/08 11:30:25;;;;;;;1.90;1.80;;;;;;;24.36;49.98;102340.91;6345935;28;20297;-75
2021/07/08 11:33:30;;;;;;;2.58;1.92;;;;;;;24.37;51.98;102339.78;6362726;28;20206;-76
2021/07/08 11:36:37;;;;;;;1.67;1.60;;;;;;;24.47;51.89;102342.63;6363868;28;20189;-76
2021/07/08 11:39:43;;;;;;;2.13;1.98;;;;;;;24.46;50.68;102338.16;6361796;28;20465;-75
2021/07/08 11:42:51;;;;;;;2.03;1.90;;;;;;;24.56;51.82;102340.97;6362672;28;20225;-75
2021/07/08 11:46:04;;;;;;;1.70;1.60;;;;;;;24.63;50.99;102347.13;6362877;28;20182;-75
2021/07/08 11:49:08;;;;;;;3.15;1.80;;;;;;;24.68;50.26;102337.94;6362428;28;20261;-76
2021/07/08 11:52:27;;;;;;;2.10;1.80;;;;;;;24.64;51.59;102326.50;6363005;28;20182;-76
2021/07/08 11:55:31;;;;;;;1.77;1.70;;;;;;;24.77;50.34;102331.56;6362666;28;20190;-76
2021/07/08 11:58:37;;;;;;;1.83;1.73;;;;;;;24.81;49.92;102341.06;6362519;28;20380;-76
2021/07/08 12:01:41;;;;;;;1.95;1.77;;;;;;;24.79;50.77;102339.66;6361650;28;20468;-76
2021/07/08 12:04:45;;;;;;;2.63;1.73;;;;;;;24.94;50.42;102330.47;6366605;28;20441;-76
2021/07/08 12:07:55;;;;;;;2.72;1.92;;;;;;;24.87;50.61;102323.22;6349550;28;20197;-76
2021/07/08 12:11:08;;;;;;;2.53;2.40;;;;;;;24.96;51.38;102317.09;6368258;28;20193;-76
2021/07/08 12:14:15;;;;;;;3.03;1.80;;;;;;;25.09;49.68;102316.56;6366691;28;20438;-76
2021/07/08 12:17:19;;;;;;;2.78;1.80;;;;;;;25.06;49.25;102312.38;6366740;28;20470;-76
2021/07/08 12:20:46;;;;;;;5.15;1.80;;;;;;;25.12;50.01;102315.97;6367794;28;20189;-76
2021/07/08 12:23:51;;;;;;;1.90;1.80;;;;;;;25.22;47.99;102315.97;6367841;28;20265;-76
2021/07/08 12:26:57;;;;;;;4.15;1.88;;;;;;;25.34;49.17;102313.75;6366604;28;20189;-76
2021/07/08 12:30:03;;;;;;;2.83;2.00;;;;;;;25.49;49.85;102308.19;6366840;28;20308;-76
2021/07/08 12:33:10;;;;;;;6.97;1.90;;;;;;;25.50;49.33;102309.84;6366380;28;20236;-76
2021/07/08 12:36:16;;;;;;;1.73;1.60;;;;;;;25.51;49.51;102317.09;6365777;28;20214;-76
2021/07/08 12:39:27;;;;;;;3.13;2.15;;;;;;;25.58;47.80;102314.84;6366870;28;20214;-76
2021/07/08 12:42:34;;;;;;;4.15;2.00;;;;;;;25.59;48.25;102308.16;6365276;28;20183;-76
2021/07/08 12:45:40;;;;;;;1.73;1.73;;;;;;;25.67;48.46;102310.38;6365505;28;20186;-76
2021/07/08 12:48:45;;;;;;;2.00;1.83;;;;;;;25.48;47.04;102303.69;6365643;28;20182;-76
2021/07/08 12:51:50;;;;;;;1.92;1.80;;;;;;;25.58;48.46;102309.28;6366415;28;20218;-76
2021/07/08 12:54:54;;;;;;;5.70;1.90;;;;;;;25.80;49.64;102307.00;6366243;28;20206;-76
2021/07/08 12:58:01;;;;;;;2.58;2.03;;;;;;;25.88;51.22;102309.22;6366621;28;20182;-76
2021/07/08 13:01:08;;;;;;;4.45;2.00;;;;;;;25.97;50.27;102304.72;6366619;28;20182;-76
2021/07/08 13:04:13;;;;;;;4.32;1.80;;;;;;;26.00;49.85;102306.94;6364956;28;20469;-76
2021/07/08 13:07:23;;;;;;;1.70;1.70;;;;;;;25.88;48.75;102302.78;6366665;28;20188;-76
2021/07/08 13:10:34;;;;;;;1.88;1.83;;;;;;;25.88;46.58;102303.63;6366025;28;20183;-75
2021/07/08 13:13:39;;;;;;;1.83;1.73;;;;;;;25.98;46.97;102313.94;6365641;28;20315;-76
2021/07/08 13:17:01;;;;;;;2.72;1.75;;;;;;;25.86;46.62;102305.84;6365196;28;20182;-76
2021/07/08 13:20:08;;;;;;;3.63;1.80;;;;;;;25.85;47.57;102295.81;6365718;28;20250;-76
2021/07/08 13:23:21;;;;;;;1.70;1.70;;;;;;;25.97;47.36;102293.53;6365764;28;20214;-76
2021/07/08 13:26:25;;;;;;;2.30;2.10;;;;;;;26.07;48.99;102284.25;6364580;28;20189;-76
2021/07/08 13:29:30;;;;;;;2.05;1.95;;;;;;;26.07;49.26;102285.09;6364303;28;20347;-76
2021/07/08 13:32:35;;;;;;;1.70;1.70;;;;;;;26.14;48.31;102283.97;6365578;28;20250;-76
2021/07/08 13:35:46;;;;;;;2.92;2.20;;;;;;;26.11;45.96;102283.41;6365819;28;20281;-76
2021/07/08 13:38:53;;;;;;;1.90;1.80;;;;;;;26.16;46.94;102284.53;6366318;28;20249;-76
2021/07/08 13:42:05;;;;;;;2.13;1.90;;;;;;;26.27;47.56;102288.97;6364273;28;20400;-76
2021/07/08 13:45:30;;;;;;;1.95;1.90;;;;;;;26.29;47.42;102292.31;6365268;28;20191;-76
2021/07/08 13:48:37;;;;;;;2.10;1.88;;;;;;;26.46;48.16;102299.19;6365010;28;20187;-76
2021/07/08 13:51:46;;;;;;;1.70;1.60;;;;;;;27.07;43.75;102296.84;6363979;28;20434;-76
2021/07/08 13:54:51;;;;;;;3.10;1.70;;;;;;;28.40;42.46;102295.19;6363760;28;20210;-76
2021/07/08 13:57:55;;;;;;;4.18;1.75;;;;;;;29.55;41.50;102294.47;6346018;28;20426;-76
2021/07/08 14:00:59;;;;;;;5.15;1.85;;;;;;;29.29;40.63;102290.47;6363729;28;20182;-76
2021/07/08 14:04:06;;;;;;;7.82;1.90;;;;;;;29.32;41.27;102290.69;6363753;28;20186;-76
2021/07/08 14:07:10;;;;;;;1.80;1.80;;;;;;;29.24;43.71;102294.19;6363527;28;20182;-76
2021/07/08 14:10:14;;;;;;;5.85;1.83;;;;;;;28.48;39.64;102292.50;6364588;28;20228;-75
2021/07/08 14:13:19;;;;;;;2.97;1.98;;;;;;;28.03;40.71;102295.94;6364391;28;20190;-75
2021/07/08 14:16:24;;;;;;;3.60;1.90;;;;;;;28.14;41.13;102291.03;6363148;28;20206;-75
2021/07/08 14:19:29;;;;;;;5.97;1.98;;;;;;;27.77;42.89;102291.72;6364449;28;20189;-75
2021/07/08 14:22:34;;;;;;;3.38;1.83;;;;;;;27.46;42.69;102301.56;6363037;28;20407;-75
2021/07/08 14:25:38;;;;;;;2.15;1.95;;;;;;;27.31;42.66;102294.13;6364291;28;20232;-75
2021/07/08 14:28:42;;;;;;;2.20;2.10;;;;;;;27.29;43.42;102296.41;6357583;28;20198;-75